Time;durP1;ratioP1;P1;durP2;ratioP2;P2;SDS_P1;SDS_P2;PMS_P1;PMS_P2;Temp;Humidity;BMP_temperature;BMP_pressure;BME280_temperature;BME280_humidity;BME280_pressure;Samples;Min_cycle;Max_cycle;Signal;HPM_P1;HPM_P2
2023/05/16 00:00:00;;;;;;;6.75;4.47;;;18.80;49.30;;;;;;5982931;29;20103;-75
2023/05/16 00:03:13;;;;;;;6.70;3.55;;;18.70;49.50;;;;;;5982891;29;20065;-75
2023/05/16 00:06:21;;;;;;;5.93;3.80;;;18.70;49.60;;;;;;5981047;29;20094;-76
2023/05/16 00:09:29;;;;;;;6.47;4.25;;;18.70;49.80;;;;;;5982506;29;20034;-75
2023/05/16 00:12:38;;;;;;;8.23;4.22;;;18.60;50.10;;;;;;5980684;29;20039;-76
2023/05/16 00:15:44;;;;;;;6.30;4.15;;;18.60;50.30;;;;;;5982464;29;20031;-75
2023/05/16 00:18:59;;;;;;;6.40;4.43;;;18.60;50.30;;;;;;5995889;29;20137;-75
2023/05/16 00:22:11;;;;;;;7.35;4.15;;;18.60;50.40;;;;;;5995777;29;20580;-75
2023/05/16 00:25:18;;;;;;;7.72;4.35;;;18.60;50.60;;;;;;5982554;29;20041;-78
2023/05/16 00:28:29;;;;;;;8.20;4.53;;;18.50;50.60;;;;;;5995505;29;20062;-75
2023/05/16 00:31:34;;;;;;;9.88;4.72;;;18.40;50.70;;;;;;5965792;29;20280;-75
2023/05/16 00:34:42;;;;;;;8.95;4.47;;;18.50;50.90;;;;;;5995729;29;20061;-76
2023/05/16 00:37:54;;;;;;;8.13;4.35;;;18.50;51.00;;;;;;5980966;29;20064;-75
2023/05/16 00:41:04;;;;;;;5.53;4.13;;;18.40;51.10;;;;;;5984162;29;20038;-75
2023/05/16 00:44:15;;;;;;;10.15;4.57;;;18.40;51.10;;;;;;5982563;29;20030;-76
2023/05/16 00:47:25;;;;;;;5.10;3.65;;;18.50;51.10;;;;;;5980619;29;20532;-77
2023/05/16 00:50:34;;;;;;;8.90;4.57;;;18.50;51.10;;;;;;5981269;29;20049;-75
2023/05/16 00:53:42;;;;;;;6.70;4.43;;;18.40;51.10;;;;;;6001928;29;20034;-75
2023/05/16 00:56:52;;;;;;;7.43;4.43;;;18.40;51.30;;;;;;6003668;29;20054;-77
2023/05/16 01:00:01;;;;;;;5.93;4.35;;;18.40;51.40;;;;;;6018324;29;20053;-77
2023/05/16 01:03:15;;;;;;;12.55;5.03;;;18.40;51.60;;;;;;6004764;29;20046;-75
2023/05/16 01:06:20;;;;;;;8.77;4.55;;;18.40;51.60;;;;;;6004307;29;20048;-76
2023/05/16 01:09:33;;;;;;;5.88;4.03;;;18.40;51.60;;;;;;6003020;29;20109;-73
2023/05/16 01:13:09;;;;;;;6.18;4.45;;;18.40;51.70;;;;;;6004243;29;20486;-76
2023/05/16 01:16:27;;;;;;;6.85;4.35;;;18.40;51.80;;;;;;6003270;29;20152;-74
2023/05/16 01:19:47;;;;;;;10.38;4.70;;;18.40;51.70;;;;;;6006467;29;20136;-74
2023/05/16 01:23:05;;;;;;;8.75;5.03;;;18.40;51.80;;;;;;6006775;29;20423;-76
2023/05/16 01:26:23;;;;;;;8.50;4.90;;;18.40;52.00;;;;;;6008291;29;20053;-74
2023/05/16 01:29:32;;;;;;;7.53;4.85;;;18.40;52.10;;;;;;6007979;29;20059;-76
2023/05/16 01:32:37;;;;;;;8.50;5.15;;;18.40;52.20;;;;;;6008283;29;20030;-76
2023/05/16 01:35:55;;;;;;;7.53;4.80;;;18.30;52.20;;;;;;6008233;29;20044;-73
2023/05/16 01:39:12;;;;;;;6.78;4.28;;;18.30;52.20;;;;;;6007299;29;20026;-75
2023/05/16 01:42:29;;;;;;;8.65;5.15;;;18.30;52.30;;;;;;5989217;29;20043;-75
2023/05/16 01:45:45;;;;;;;6.15;4.70;;;18.30;52.30;;;;;;5984239;29;20034;-78
2023/05/16 01:48:56;;;;;;;7.55;4.47;;;18.30;52.50;;;;;;5983510;29;20058;-74
2023/05/16 01:52:30;;;;;;;8.20;5.05;;;18.30;52.60;;;;;;5985645;29;20121;-74
2023/05/16 01:56:02;;;;;;;7.00;4.47;;;18.20;52.70;;;;;;5914275;30;20153;-74
2023/05/16 01:59:22;;;;;;;8.30;4.95;;;18.20;52.80;;;;;;5914453;30;20064;-76
2023/05/16 02:02:31;;;;;;;8.13;4.95;;;18.20;52.80;;;;;;5914181;30;20054;-74
2023/05/16 02:05:48;;;;;;;11.23;5.10;;;18.20;52.90;;;;;;5898855;30;20130;-75
2023/05/16 02:08:56;;;;;;;9.13;4.97;;;18.20;52.90;;;;;;5914837;30;20044;-74
2023/05/16 02:12:15;;;;;;;8.70;4.90;;;18.20;53.00;;;;;;5901774;30;20039;-76
2023/05/16 02:15:23;;;;;;;5.80;4.40;;;18.10;53.20;;;;;;5914678;30;20051;-73
2023/05/16 02:18:33;;;;;;;6.65;4.72;;;18.20;53.30;;;;;;5913931;30;20171;-74
2023/05/16 02:21:43;;;;;;;11.15;4.75;;;18.10;53.30;;;;;;5914062;30;20055;-74
2023/05/16 02:24:52;;;;;;;7.15;4.88;;;18.10;53.30;;;;;;5913876;30;20075;-74
2023/05/16 02:28:04;;;;;;;8.93;5.00;;;18.10;53.40;;;;;;5913618;30;20055;-74
2023/05/16 02:31:37;;;;;;;7.57;4.88;;;18.10;53.60;;;;;;5925647;29;20044;-75
2023/05/16 02:34:42;;;;;;;9.35;4.43;;;18.00;53.60;;;;;;5984355;29;20050;-75
2023/05/16 02:37:54;;;;;;;9.63;4.68;;;18.00;53.70;;;;;;5984107;29;20041;-73
2023/05/16 02:41:06;;;;;;;11.25;5.50;;;18.00;53.70;;;;;;5985791;29;20044;-74
2023/05/16 02:44:18;;;;;;;10.63;4.80;;;18.00;54.00;;;;;;5988147;29;20034;-72
2023/05/16 02:47:25;;;;;;;7.57;4.68;;;17.90;54.10;;;;;;5986824;29;20030;-73
2023/05/16 02:50:33;;;;;;;8.43;5.03;;;18.00;54.40;;;;;;5970357;29;20057;-73
2023/05/16 02:53:39;;;;;;;7.13;4.57;;;17.80;54.50;;;;;;5999799;29;20066;-73
2023/05/16 02:56:46;;;;;;;8.63;4.95;;;17.80;54.60;;;;;;5961497;29;20038;-73
2023/05/16 02:59:56;;;;;;;12.73;5.18;;;17.80;54.80;;;;;;5970098;29;20092;-74
2023/05/16 03:03:08;;;;;;;9.50;4.97;;;17.70;55.00;;;;;;5983741;29;20041;-76
2023/05/16 03:06:17;;;;;;;8.18;5.18;;;17.70;55.20;;;;;;5982113;29;20034;-73
2023/05/16 03:09:23;;;;;;;10.77;5.57;;;17.70;55.30;;;;;;5997169;29;20034;-75
2023/05/16 03:12:33;;;;;;;10.68;4.88;;;17.60;55.30;;;;;;5982988;29;20187;-74
2023/05/16 03:15:38;;;;;;;8.70;5.68;;;17.60;55.40;;;;;;5983402;29;20107;-75
2023/05/16 03:18:44;;;;;;;9.43;5.28;;;17.60;55.40;;;;;;5983903;29;20042;-72
2023/05/16 03:21:52;;;;;;;8.27;5.63;;;17.60;55.60;;;;;;5984748;29;20034;-72
2023/05/16 03:25:08;;;;;;;9.10;5.00;;;17.60;55.50;;;;;;5983186;29;20049;-73
2023/05/16 03:28:21;;;;;;;10.30;5.10;;;17.60;55.60;;;;;;5981351;29;20114;-72
2023/05/16 03:31:32;;;;;;;10.90;5.57;;;17.60;55.70;;;;;;5966398;29;20033;-73
2023/05/16 03:34:38;;;;;;;8.05;5.97;;;17.50;55.70;;;;;;5964351;29;20117;-74
2023/05/16 03:37:49;;;;;;;13.52;6.13;;;17.60;55.80;;;;;;5968613;29;20050;-73
2023/05/16 03:41:01;;;;;;;7.57;4.82;;;17.60;55.80;;;;;;5983422;29;20148;-75
2023/05/16 03:44:09;;;;;;;7.88;5.18;;;17.50;56.00;;;;;;5982994;29;20060;-74
2023/05/16 03:47:16;;;;;;;8.77;5.90;;;17.50;55.90;;;;;;5982604;29;20140;-75
2023/05/16 03:50:22;;;;;;;9.38;5.75;;;17.50;55.90;;;;;;5982687;29;20069;-75
2023/05/16 03:53:31;;;;;;;9.32;5.30;;;17.50;56.00;;;;;;5999868;29;20049;-74
2023/05/16 03:56:38;;;;;;;8.00;5.60;;;17.50;56.00;;;;;;5983443;29;20193;-72
2023/05/16 03:59:47;;;;;;;13.75;5.85;;;17.50;56.10;;;;;;5982221;29;20109;-76
2023/05/16 04:02:59;;;;;;;10.15;5.80;;;17.50;56.10;;;;;;5980990;29;20034;-74
2023/05/16 04:06:11;;;;;;;9.38;6.05;;;17.50;56.30;;;;;;5982456;29;20061;-74
2023/05/16 04:09:19;;;;;;;11.38;6.05;;;17.50;56.30;;;;;;5966115;29;20031;-74
2023/05/16 04:12:26;;;;;;;11.00;6.28;;;17.50;56.40;;;;;;5995772;29;20410;-74
2023/05/16 04:15:33;;;;;;;11.60;5.97;;;17.50;56.30;;;;;;5980577;29;20087;-73
2023/05/16 04:18:40;;;;;;;10.48;5.55;;;17.40;56.40;;;;;;5981600;29;20030;-75
2023/05/16 04:21:44;;;;;;;11.18;5.85;;;17.40;56.50;;;;;;5982745;29;20041;-72
2023/05/16 04:24:55;;;;;;;10.55;5.65;;;17.40;56.50;;;;;;5980930;29;20712;-75
2023/05/16 04:28:06;;;;;;;10.35;5.72;;;17.40;56.60;;;;;;5981741;29;20484;-74
2023/05/16 04:31:16;;;;;;;10.88;6.45;;;17.40;56.60;;;;;;5981726;29;20077;-75
2023/05/16 04:34:26;;;;;;;10.38;5.55;;;17.40;56.80;;;;;;5981972;29;20041;-75
2023/05/16 04:37:33;;;;;;;13.05;6.78;;;17.40;56.80;;;;;;5981513;29;20042;-73
2023/05/16 04:40:40;;;;;;;11.02;6.03;;;17.40;56.80;;;;;;5982288;29;20030;-74
2023/05/16 04:43:50;;;;;;;9.43;6.07;;;17.40;57.50;;;;;;5980490;29;20050;-76
2023/05/16 04:46:57;;;;;;;12.25;6.50;;;17.30;56.90;;;;;;5980339;29;20050;-75
2023/05/16 04:50:14;;;;;;;12.00;6.18;;;17.30;56.90;;;;;;5980378;29;20141;-74
2023/05/16 04:53:21;;;;;;;16.17;6.50;;;17.30;57.00;;;;;;5985008;29;20034;-74
2023/05/16 04:56:31;;;;;;;13.50;6.13;;;17.30;57.10;;;;;;5986177;29;20041;-74
2023/05/16 04:59:40;;;;;;;11.98;6.43;;;17.30;57.10;;;;;;6000370;29;20121;-74
2023/05/16 05:02:48;;;;;;;10.63;6.50;;;17.30;57.10;;;;;;5985805;29;20109;-76
2023/05/16 05:05:59;;;;;;;11.95;6.82;;;17.30;57.00;;;;;;5985912;29;20171;-76
2023/05/16 05:09:12;;;;;;;12.60;6.65;;;17.30;57.00;;;;;;5984950;29;20031;-77
2023/05/16 05:12:18;;;;;;;12.30;6.78;;;17.40;57.10;;;;;;5987723;29;20038;-76
2023/05/16 05:15:29;;;;;;;10.07;6.32;;;17.40;57.10;;;;;;5986164;29;20099;-75
2023/05/16 05:18:33;;;;;;;13.10;5.97;;;17.40;57.00;;;;;;5985762;29;20087;-75
2023/05/16 05:21:44;;;;;;;13.50;6.72;;;17.40;57.00;;;;;;5984717;29;20042;-75
2023/05/16 05:24:54;;;;;;;10.63;5.63;;;17.40;57.00;;;;;;5985998;29;20084;-75
2023/05/16 05:28:08;;;;;;;15.07;6.18;;;17.40;57.10;;;;;;5962246;29;20122;-75
2023/05/16 05:31:16;;;;;;;9.73;5.88;;;17.40;57.10;;;;;;5963806;29;20113;-75
2023/05/16 05:34:26;;;;;;;12.68;6.45;;;17.40;57.10;;;;;;5963912;29;20054;-75
2023/05/16 05:37:35;;;;;;;13.65;7.32;;;17.30;57.10;;;;;;5963106;29;20050;-74
2023/05/16 05:40:40;;;;;;;19.75;7.00;;;17.40;57.20;;;;;;5961795;29;20126;-74
2023/05/16 05:43:48;;;;;;;13.40;6.63;;;17.40;57.20;;;;;;5961714;29;20113;-73
2023/05/16 05:47:08;;;;;;;11.93;6.97;;;17.40;57.30;;;;;;5947013;29;20409;-74
2023/05/16 05:50:17;;;;;;;15.43;7.22;;;17.40;57.90;;;;;;5983993;29;20026;-74
2023/05/16 05:53:23;;;;;;;13.35;6.88;;;17.40;57.40;;;;;;5987762;29;20372;-75
2023/05/16 05:56:32;;;;;;;13.27;6.13;;;17.40;57.40;;;;;;5987709;29;20060;-73
2023/05/16 05:59:42;;;;;;;11.82;6.53;;;17.40;57.30;;;;;;5973058;29;20042;-75
2023/05/16 06:02:50;;;;;;;9.60;6.25;;;17.40;57.20;;;;;;5983614;29;20046;-74
2023/05/16 06:06:08;;;;;;;13.02;6.40;;;17.30;57.20;;;;;;5983183;29;20046;-74
2023/05/16 06:09:15;;;;;;;14.43;6.45;;;17.40;57.20;;;;;;5983042;29;20034;-76
2023/05/16 06:12:24;;;;;;;14.55;6.57;;;17.40;57.10;;;;;;5984462;29;20053;-74
2023/05/16 06:15:32;;;;;;;13.77;7.03;;;17.40;57.70;;;;;;5983630;29;20082;-76
2023/05/16 06:18:43;;;;;;;12.52;7.22;;;17.40;57.40;;;;;;5983530;29;20038;-74
2023/05/16 06:21:51;;;;;;;14.82;7.53;;;17.40;57.60;;;;;;5984688;29;20035;-75
2023/05/16 06:25:03;;;;;;;12.82;6.28;;;17.30;57.80;;;;;;5982962;29;20042;-75
2023/05/16 06:28:13;;;;;;;14.23;7.50;;;17.30;57.90;;;;;;5962546;29;20476;-75
2023/05/16 06:31:22;;;;;;;12.68;6.90;;;17.20;58.00;;;;;;5964079;29;20357;-74
2023/05/16 06:34:31;;;;;;;16.65;7.28;;;17.30;58.10;;;;;;5961089;29;20151;-77
2023/05/16 06:37:38;;;;;;;13.38;6.28;;;17.30;58.10;;;;;;5962507;29;20092;-77
2023/05/16 06:40:48;;;;;;;12.63;6.83;;;17.30;58.20;;;;;;5962192;29;20042;-75
2023/05/16 06:43:56;;;;;;;12.57;7.00;;;17.30;58.30;;;;;;5964033;29;20113;-78
2023/05/16 06:47:08;;;;;;;25.50;7.75;;;17.30;58.40;;;;;;5984455;29;20042;-75
2023/05/16 06:50:17;;;;;;;19.35;7.45;;;17.30;58.40;;;;;;5983613;29;20581;-76
2023/05/16 06:53:23;;;;;;;15.40;7.22;;;17.20;58.50;;;;;;5983700;29;20022;-76
2023/05/16 06:56:30;;;;;;;17.60;7.68;;;17.20;58.60;;;;;;5983388;29;20034;-74
2023/05/16 06:59:37;;;;;;;13.65;7.20;;;17.20;59.00;;;;;;5999059;29;20166;-76
2023/05/16 07:02:44;;;;;;;;;;;17.20;58.90;;;;;;5984636;29;20042;-74
2023/05/16 07:05:51;;;;;;;13.45;6.45;;;17.20;59.30;;;;;;5986199;29;20017;-76
2023/05/16 07:09:06;;;;;;;19.17;7.45;;;17.10;59.30;;;;;;5986133;29;20510;-74
2023/05/16 07:12:16;;;;;;;20.55;8.20;;;17.10;59.60;;;;;;5984486;29;20042;-74
2023/05/16 07:15:23;;;;;;;21.20;8.27;;;17.10;59.70;;;;;;5984265;29;20049;-75
2023/05/16 07:18:33;;;;;;;25.85;7.65;;;17.00;59.90;;;;;;5984191;29;20090;-76
2023/05/16 07:21:39;;;;;;;14.77;7.82;;;17.00;60.00;;;;;;5984770;29;20186;-74
2023/05/16 07:24:55;;;;;;;15.40;7.70;;;16.90;60.30;;;;;;5998625;29;20058;-76
2023/05/16 07:28:14;;;;;;;18.85;7.57;;;16.80;60.50;;;;;;5982418;29;20138;-74
2023/05/16 07:31:19;;;;;;;14.90;7.63;;;16.90;60.70;;;;;;5982095;29;20038;-76
2023/05/16 07:34:27;;;;;;;20.00;7.47;;;16.90;60.70;;;;;;5982411;29;20198;-75
2023/05/16 07:37:35;;;;;;;17.13;8.65;;;16.90;60.50;;;;;;5982079;29;20065;-75
2023/05/16 07:40:44;;;;;;;18.40;7.97;;;16.80;60.60;;;;;;5996846;29;20042;-74
2023/05/16 07:43:53;;;;;;;19.33;7.68;;;16.80;60.80;;;;;;5981647;29;20070;-76
2023/05/16 07:47:04;;;;;;;16.98;8.30;;;16.80;60.80;;;;;;5982589;29;20532;-74
2023/05/16 07:50:18;;;;;;;23.33;8.88;;;16.80;60.80;;;;;;5997572;29;20042;-74
2023/05/16 07:53:26;;;;;;;15.05;7.18;;;16.80;60.90;;;;;;6001543;29;20029;-73
2023/05/16 07:56:36;;;;;;;16.42;7.80;;;16.80;61.00;;;;;;5976967;29;20039;-75
2023/05/16 07:59:45;;;;;;;15.43;7.25;;;16.80;60.80;;;;;;5960280;29;20127;-76
2023/05/16 08:02:54;;;;;;;15.57;7.45;;;16.80;60.80;;;;;;5959549;29;20039;-74
2023/05/16 08:06:03;;;;;;;18.27;7.53;;;16.90;60.80;;;;;;5959349;29;20149;-75
2023/05/16 08:09:16;;;;;;;20.65;7.90;;;16.90;60.50;;;;;;5959023;29;20030;-75
2023/05/16 08:12:23;;;;;;;18.73;7.53;;;16.90;60.60;;;;;;5958426;29;20042;-73
2023/05/16 08:15:32;;;;;;;12.68;7.03;;;16.90;60.30;;;;;;5968916;29;20039;-73
2023/05/16 08:18:39;;;;;;;13.75;7.18;;;16.90;60.10;;;;;;5981742;29;20058;-74
2023/05/16 08:21:47;;;;;;;14.65;7.25;;;16.90;59.80;;;;;;5983617;29;20069;-74
2023/05/16 08:25:00;;;;;;;13.18;7.40;;;16.90;59.70;;;;;;5984846;29;20242;-76
2023/05/16 08:28:06;;;;;;;14.02;6.65;;;16.90;59.70;;;;;;6000486;29;20034;-76
2023/05/16 08:31:18;;;;;;;15.23;6.95;;;16.90;59.60;;;;;;5984529;29;20060;-75
2023/05/16 08:34:28;;;;;;;13.13;7.10;;;17.00;59.40;;;;;;5983354;29;20554;-76
2023/05/16 08:37:33;;;;;;;18.35;6.30;;;17.00;59.30;;;;;;5983066;29;20129;-73
2023/05/16 08:40:39;;;;;;;15.60;7.80;;;17.00;59.20;;;;;;5981021;29;20128;-74
2023/05/16 08:43:50;;;;;;;17.05;6.70;;;17.00;59.20;;;;;;5981691;29;20053;-75
2023/05/16 08:46:58;;;;;;;13.00;6.57;;;17.00;59.10;;;;;;5981536;29;20037;-77
2023/05/16 08:50:11;;;;;;;13.13;6.47;;;17.00;59.10;;;;;;5981869;29;20054;-77
2023/05/16 08:53:25;;;;;;;13.00;7.03;;;16.90;59.10;;;;;;5982889;29;20122;-74
2023/05/16 08:56:33;;;;;;;13.75;6.18;;;16.90;59.30;;;;;;5981570;29;20034;-75
2023/05/16 08:59:41;;;;;;;22.85;7.07;;;16.80;59.40;;;;;;5965736;29;20042;-74
2023/05/16 09:02:52;;;;;;;16.33;6.47;;;16.80;59.60;;;;;;5965788;29;20126;-73
2023/05/16 09:06:01;;;;;;;12.32;6.00;;;16.80;59.50;;;;;;5965376;29;20464;-77
2023/05/16 09:09:16;;;;;;;12.23;6.00;;;16.80;59.50;;;;;;5965220;29;20031;-78
2023/05/16 09:12:23;;;;;;;21.42;6.50;;;16.80;59.30;;;;;;5995519;29;20043;-75
2023/05/16 09:19:16;;;;;;;11.60;5.55;;;16.90;59.00;;;;;;5936429;29;20035;-73
2023/05/16 09:22:31;;;;;;;12.68;6.05;;;17.00;58.80;;;;;;5933843;30;20059;-76
2023/05/16 09:25:35;;;;;;;17.77;6.18;;;17.00;58.70;;;;;;5935171;30;20039;-76
2023/05/16 09:28:45;;;;;;;14.02;5.50;;;17.10;58.70;;;;;;5935083;30;20031;-76
2023/05/16 09:31:53;;;;;;;11.57;5.97;;;17.10;58.80;;;;;;5918738;30;20366;-73
2023/05/16 09:35:02;;;;;;;10.65;5.68;;;17.10;58.80;;;;;;5919355;30;20050;-73
2023/05/16 09:38:23;;;;;;;12.13;5.78;;;17.10;58.70;;;;;;5921290;30;20034;-77
2023/05/16 09:41:34;;;;;;;8.70;4.25;;;17.10;58.60;;;;;;5922816;30;20046;-76
2023/05/16 09:44:48;;;;;;;10.43;4.57;;;17.10;58.20;;;;;;5923335;30;20043;-75
2023/05/16 09:47:54;;;;;;;8.30;4.35;;;17.20;58.20;;;;;;5923040;30;20042;-73
2023/05/16 09:51:07;;;;;;;8.07;3.92;;;17.20;58.10;;;;;;5923749;30;20111;-73
2023/05/16 09:54:18;;;;;;;11.63;3.97;;;17.30;57.90;;;;;;5922931;29;20089;-74
2023/05/16 09:57:27;;;;;;;7.63;4.57;;;17.20;57.70;;;;;;5985442;29;20041;-75
2023/05/16 10:00:33;;;;;;;8.73;3.85;;;17.20;57.70;;;;;;5985469;29;20034;-74
2023/05/16 10:03:44;;;;;;;8.25;3.42;;;17.10;57.70;;;;;;5985330;29;20034;-74
2023/05/16 10:07:03;;;;;;;5.43;3.17;;;17.10;57.90;;;;;;5985813;29;20044;-73
2023/05/16 10:10:11;;;;;;;7.55;3.63;;;17.00;58.00;;;;;;5999923;29;20030;-74
2023/05/16 10:13:21;;;;;;;6.57;3.53;;;17.00;58.10;;;;;;5984676;29;20053;-74
2023/05/16 10:16:29;;;;;;;7.75;3.15;;;17.00;58.00;;;;;;5969971;29;20095;-74
2023/05/16 10:19:38;;;;;;;6.55;3.00;;;17.00;57.90;;;;;;5986393;29;20090;-74
2023/05/16 10:22:44;;;;;;;6.75;3.33;;;17.00;57.90;;;;;;5985803;29;20095;-73
2023/05/16 10:25:57;;;;;;;7.10;2.90;;;17.10;57.80;;;;;;5983893;29;20049;-73
2023/05/16 10:29:03;;;;;;;;;;;17.10;58.00;;;;;;5986993;29;20049;-74
2023/05/16 10:32:12;;;;;;;4.38;2.58;;;17.10;58.60;;;;;;5986707;29;19942;-77
2023/05/16 10:35:22;;;;;;;9.77;3.58;;;17.00;59.00;;;;;;5986257;29;20197;-74
2023/05/16 10:38:33;;;;;;;6.97;2.92;;;17.00;59.30;;;;;;5969742;29;20049;-75
2023/05/16 10:41:38;;;;;;;4.55;2.42;;;17.10;59.30;;;;;;5983222;29;20041;-74
2023/05/16 10:44:44;;;;;;;5.10;2.53;;;17.20;59.20;;;;;;5983881;29;20098;-74
2023/05/16 10:48:09;;;;;;;4.85;2.33;;;17.20;58.90;;;;;;5983456;29;20050;-74
2023/05/16 10:51:37;;;;;;;4.65;2.50;;;17.10;58.80;;;;;;5986913;29;20023;-74
2023/05/16 10:54:44;;;;;;;4.63;2.50;;;17.00;58.90;;;;;;6008094;29;20106;-73
2023/05/16 10:57:56;;;;;;;5.13;2.92;;;17.00;59.20;;;;;;6022104;29;20034;-76
2023/05/16 11:01:23;;;;;;;4.88;2.90;;;17.00;59.40;;;;;;6024561;29;20038;-74
2023/05/16 11:04:53;;;;;;;8.07;3.53;;;16.90;59.50;;;;;;6003996;29;20101;-75
2023/05/16 11:08:11;;;;;;;8.90;3.60;;;16.70;60.20;;;;;;5983434;29;20506;-73
2023/05/16 11:11:47;;;;;;;6.43;3.35;;;16.50;61.40;;;;;;5984622;29;20136;-74
2023/05/16 11:14:58;;;;;;;5.50;3.55;;;16.30;62.10;;;;;;5996593;29;20163;-75
2023/05/16 11:18:17;;;;;;;5.50;3.35;;;16.20;62.90;;;;;;5981768;29;20038;-76
2023/05/16 11:21:23;;;;;;;6.43;3.60;;;16.20;63.10;;;;;;5983494;29;20129;-74
2023/05/16 11:24:34;;;;;;;9.20;4.15;;;16.30;63.10;;;;;;5982938;29;20049;-76
2023/05/16 11:27:45;;;;;;;12.98;3.97;;;16.40;62.80;;;;;;5985532;29;20421;-74
2023/05/16 11:30:58;;;;;;;9.02;4.38;;;16.50;62.20;;;;;;5984006;29;20042;-75
2023/05/16 11:34:14;;;;;;;9.77;4.07;;;16.50;62.00;;;;;;5982582;29;20030;-75
2023/05/16 11:37:21;;;;;;;11.77;4.65;;;16.60;62.00;;;;;;5966750;29;20066;-74
2023/05/16 11:40:28;;;;;;;10.80;4.43;;;16.60;62.20;;;;;;5981852;29;20045;-76
2023/05/16 11:43:45;;;;;;;12.02;4.82;;;16.60;62.20;;;;;;5982321;29;20046;-75
2023/05/16 11:46:57;;;;;;;7.47;3.70;;;16.60;62.10;;;;;;5983158;29;20039;-76
2023/05/16 11:50:24;;;;;;;7.93;3.70;;;16.70;62.10;;;;;;5982824;29;20087;-76
2023/05/16 11:53:33;;;;;;;17.92;4.57;;;16.80;62.10;;;;;;5983465;29;20107;-77
2023/05/16 11:56:40;;;;;;;11.68;4.43;;;16.80;62.50;;;;;;5967009;29;20042;-73
2023/05/16 11:59:47;;;;;;;7.65;3.85;;;16.80;60.90;;;;;;5981412;29;20149;-75
2023/05/16 12:03:06;;;;;;;6.65;3.40;;;17.00;60.40;;;;;;5981683;29;20050;-75
2023/05/16 12:06:16;;;;;;;7.25;3.72;;;17.00;60.00;;;;;;5983502;29;20040;-75
2023/05/16 12:09:29;;;;;;;8.30;4.35;;;17.10;59.50;;;;;;5983752;29;20050;-75
2023/05/16 12:12:37;;;;;;;8.95;4.45;;;17.20;59.40;;;;;;5983791;29;20053;-74
2023/05/16 12:15:44;;;;;;;8.23;4.30;;;17.10;59.50;;;;;;5984282;29;20045;-75
2023/05/16 12:18:52;;;;;;;13.98;3.97;;;17.10;59.70;;;;;;5981680;29;20034;-76
2023/05/16 12:22:14;;;;;;;7.28;3.40;;;17.10;59.90;;;;;;5996103;29;20038;-77
2023/05/16 12:25:25;;;;;;;6.05;3.63;;;17.00;60.00;;;;;;5982586;29;20046;-74
2023/05/16 12:28:38;;;;;;;7.97;3.33;;;16.90;60.30;;;;;;5980962;29;20083;-74
2023/05/16 12:31:47;;;;;;;8.20;3.50;;;16.80;60.90;;;;;;5995819;29;20175;-76
2023/05/16 12:34:56;;;;;;;9.52;3.00;;;16.60;61.40;;;;;;5982952;29;20038;-75
2023/05/16 12:38:11;;;;;;;7.45;3.30;;;16.50;61.90;;;;;;5982195;29;20046;-75
2023/05/16 12:41:23;;;;;;;5.97;3.40;;;16.30;62.30;;;;;;5982691;29;20588;-74
2023/05/16 12:44:33;;;;;;;4.65;2.20;;;16.20;62.60;;;;;;5966048;29;20026;-76
2023/05/16 12:47:38;;;;;;;6.60;2.80;;;16.20;62.80;;;;;;5981473;29;20058;-75
2023/05/16 12:50:47;;;;;;;7.88;3.13;;;16.20;62.80;;;;;;5965652;29;20474;-75
2023/05/16 12:53:53;;;;;;;5.53;2.63;;;16.30;62.50;;;;;;5995759;29;20356;-74
2023/05/16 12:57:03;;;;;;;4.17;1.90;;;16.40;62.30;;;;;;5981688;29;20050;-75
2023/05/16 13:00:13;;;;;;;3.10;2.28;;;16.50;61.90;;;;;;5982511;29;20073;-76
2023/05/16 13:03:23;;;;;;;4.57;2.28;;;16.60;61.40;;;;;;5981323;29;20038;-73
2023/05/16 13:06:33;;;;;;;4.47;2.67;;;16.70;60.90;;;;;;5981430;29;20038;-73
2023/05/16 13:09:40;;;;;;;7.40;2.50;;;16.90;60.00;;;;;;5998072;29;20542;-76
2023/05/16 13:12:48;;;;;;;3.28;2.00;;;16.90;59.30;;;;;;5998337;29;20185;-75
2023/05/16 13:15:54;;;;;;;10.18;3.40;;;17.00;59.10;;;;;;5987766;29;20113;-75
2023/05/16 13:19:04;;;;;;;5.43;2.30;;;17.10;58.70;;;;;;5985875;29;20468;-75
2023/05/16 13:22:18;;;;;;;4.95;2.42;;;17.20;58.10;;;;;;5987879;29;20043;-77
2023/05/16 13:25:29;;;;;;;6.03;2.22;;;17.30;57.70;;;;;;5986548;29;20062;-75
2023/05/16 13:28:37;;;;;;;5.55;2.42;;;17.40;57.40;;;;;;5986445;29;20042;-74
2023/05/16 13:31:47;;;;;;;4.88;2.65;;;17.40;57.30;;;;;;5985859;29;20082;-74
2023/05/16 13:34:56;;;;;;;6.15;2.75;;;17.50;57.10;;;;;;5986449;29;20042;-74
2023/05/16 13:38:04;;;;;;;6.90;3.03;;;17.50;56.90;;;;;;5986852;29;20034;-74
2023/05/16 13:41:14;;;;;;;;;;;17.50;56.90;;;;;;5985348;29;20048;-72
2023/05/16 13:44:18;;;;;;;4.07;2.80;;;17.50;57.00;;;;;;5983892;29;19916;-75
2023/05/16 13:47:27;;;;;;;7.82;3.13;;;17.50;56.90;;;;;;5983542;29;20150;-74
2023/05/16 13:50:35;;;;;;;6.55;2.90;;;17.40;57.20;;;;;;5985296;29;20117;-74
2023/05/16 13:53:49;;;;;;;5.57;2.83;;;17.40;57.30;;;;;;5983738;29;20030;-73
2023/05/16 13:56:58;;;;;;;5.43;3.00;;;17.30;57.30;;;;;;5969543;29;20031;-76
2023/05/16 14:00:11;;;;;;;4.78;3.13;;;17.20;57.10;;;;;;5964729;29;20050;-74
2023/05/16 14:03:22;;;;;;;4.95;2.75;;;17.20;57.20;;;;;;5966955;29;20035;-75
2023/05/16 14:06:30;;;;;;;6.78;2.88;;;17.20;57.40;;;;;;5966014;29;20045;-73
2023/05/16 14:09:38;;;;;;;5.70;3.05;;;17.20;57.60;;;;;;5948746;29;20038;-78
2023/05/16 14:12:45;;;;;;;6.38;3.22;;;17.20;57.70;;;;;;5962061;29;20092;-74
2023/05/16 14:15:52;;;;;;;5.82;3.30;;;17.20;57.70;;;;;;5978516;29;20113;-72
2023/05/16 14:19:01;;;;;;;8.80;3.63;;;17.20;57.80;;;;;;5983411;29;20035;-76
2023/05/16 14:22:14;;;;;;;5.88;3.15;;;17.10;57.80;;;;;;5985081;29;20034;-73
2023/05/16 14:25:22;;;;;;;5.72;3.33;;;17.00;58.10;;;;;;5985242;29;20038;-74
2023/05/16 14:28:33;;;;;;;;;;;16.90;58.40;;;;;;6000142;29;20681;-75
2023/05/16 14:31:40;;;;;;;6.13;3.13;;;16.80;58.60;;;;;;5986998;29;20037;-74
2023/05/16 14:34:47;;;;;;;8.85;3.13;;;16.80;58.80;;;;;;5985192;29;20064;-74
2023/05/16 14:37:57;;;;;;;4.90;3.05;;;16.70;59.20;;;;;;5969653;29;20046;-75
2023/05/16 14:41:06;;;;;;;5.68;3.10;;;16.60;59.50;;;;;;5983675;29;20045;-73
2023/05/16 14:44:15;;;;;;;6.95;3.60;;;16.50;59.70;;;;;;5983978;29;20091;-75
2023/05/16 14:47:20;;;;;;;6.78;3.47;;;16.50;59.90;;;;;;5983149;29;20038;-75
2023/05/16 14:50:26;;;;;;;10.45;3.80;;;16.40;60.00;;;;;;5962523;29;20104;-73
2023/05/16 14:53:35;;;;;;;6.63;3.22;;;16.40;60.70;;;;;;5962783;29;20041;-75
2023/05/16 14:56:44;;;;;;;6.75;3.63;;;16.40;61.20;;;;;;5964185;29;20034;-74
2023/05/16 14:59:53;;;;;;;6.53;3.33;;;16.40;61.10;;;;;;5975085;29;20046;-77
2023/05/16 15:03:03;;;;;;;10.27;3.67;;;16.40;60.90;;;;;;5960433;29;20039;-75
2023/05/16 15:06:15;;;;;;;10.57;3.70;;;16.50;60.60;;;;;;5963561;29;20035;-75
2023/05/16 15:09:23;;;;;;;8.23;3.75;;;16.40;60.40;;;;;;5963336;29;20043;-74
2023/05/16 15:12:33;;;;;;;4.97;3.17;;;16.40;60.20;;;;;;5982016;29;20057;-74
2023/05/16 15:15:41;;;;;;;7.13;3.33;;;16.30;60.20;;;;;;5998006;29;20114;-76
2023/05/16 15:18:45;;;;;;;6.93;3.10;;;16.20;60.50;;;;;;5982266;29;20070;-74
2023/05/16 15:21:54;;;;;;;10.35;3.28;;;16.20;60.70;;;;;;5967734;29;20039;-75
2023/05/16 15:25:07;;;;;;;5.20;3.28;;;16.20;60.80;;;;;;5982342;29;20107;-76
2023/05/16 15:28:18;;;;;;;9.45;3.85;;;16.30;60.80;;;;;;5983512;29;20114;-76
2023/05/16 15:31:33;;;;;;;6.13;3.30;;;16.40;60.70;;;;;;5981970;29;20106;-75
2023/05/16 15:34:42;;;;;;;5.93;2.83;;;16.40;60.40;;;;;;5984051;29;20149;-77
2023/05/16 15:37:47;;;;;;;9.63;3.13;;;16.40;60.40;;;;;;5981802;29;20560;-76
2023/05/16 15:40:56;;;;;;;8.77;3.35;;;16.40;60.50;;;;;;5966784;29;20122;-73
2023/05/16 15:44:05;;;;;;;8.05;3.03;;;16.40;60.40;;;;;;5982223;29;20440;-75
2023/05/16 15:47:14;;;;;;;6.28;2.97;;;16.40;60.30;;;;;;5995788;29;20065;-76
2023/05/16 15:50:21;;;;;;;6.07;2.95;;;16.50;60.00;;;;;;5980838;29;20042;-76
2023/05/16 15:53:32;;;;;;;7.45;3.22;;;16.50;59.70;;;;;;5982924;29;20369;-76
2023/05/16 15:56:39;;;;;;;4.45;2.53;;;16.50;59.50;;;;;;5981658;29;20034;-76
2023/05/16 15:59:46;;;;;;;6.17;3.07;;;16.50;59.40;;;;;;5983608;29;20034;-74
2023/05/16 16:02:57;;;;;;;4.07;2.70;;;16.60;59.30;;;;;;5997125;29;20406;-73
2023/05/16 16:06:10;;;;;;;4.32;2.72;;;16.60;59.30;;;;;;5981814;29;20047;-75
2023/05/16 16:09:20;;;;;;;6.50;3.08;;;16.60;59.00;;;;;;5959061;29;20218;-74
2023/05/16 16:12:31;;;;;;;5.72;2.72;;;16.60;58.90;;;;;;5974506;29;20035;-75
2023/05/16 16:15:40;;;;;;;5.00;2.90;;;16.60;58.80;;;;;;5959559;29;20091;-77
2023/05/16 16:18:48;;;;;;;4.28;2.65;;;16.60;58.50;;;;;;5960187;29;20130;-77
2023/05/16 16:21:58;;;;;;;8.60;3.15;;;16.70;58.50;;;;;;5973770;29;20081;-74
2023/05/16 16:25:04;;;;;;;6.53;2.83;;;16.70;58.30;;;;;;5959901;29;20046;-76
2023/05/16 16:28:17;;;;;;;4.25;2.50;;;16.70;58.10;;;;;;5960456;29;20031;-73